Главная страница
METAR-TAF:

METAR-TAF

Аэропорты :

Борден (авиабаза)

Borden, Онтарио, Канада

широта: 44-15N, долгота: 079-55W, высота над уровнем моря: 223 м

Текущие метеонаблюдения

Эта сводка был подготовлена 1 час и 2 минут назад, в 20:00 UTC
Ветер 8 Узел от северно-северо-западный, изменяющийся между северо-западный и северо-северо-восточный
Температура 15°C
Влажность 63%
Давление 1020 hPa
Видимость: 14.5 км
ясное небо

METAR: CYBN 202000Z AUTO 34008KT 320V020 9SM CLR 15/08 A3013 RMK SLP206

Время: 17:02 (21:02 UTC)


TAF: отсутствует

Метеонаблюдения и прогнозы для более 4000 аэропортов (сводки METAR и TAF).

Имеющиеся станции представлены на карте желтыми и красными точками.

Чтобы увидеть название станции, наведите на нее мышь.

Затем щелкните, чтобы увидеть метеонаблюдения и метеопрогнозы.

Управление картой: чтобы увеличить масштаб, щелкните зеленые кнопки с черным крестиком; чтобы уменьшить масштаб, щелкните зеленую кнопку с тире; для просмотра соседних карт щелкайте зеленые стрелки.


METAR-TAF: